Time;durP1;ratioP1;P1;durP2;ratioP2;P2;SDS_P1;SDS_P2;PMS_P1;PMS_P2;Temp;Humidity;BMP_temperature;BMP_pressure;BME280_temperature;BME280_humidity;BME280_pressure;Samples;Min_cycle;Max_cycle;Signal;HPM_P1;HPM_P2
2022/02/24 00:00:15;;;;;;;10.15;3.25;;;7.70;93.70;;;;;;5060377;28;20076;-67
2022/02/24 00:02:42;;;;;;;12.30;3.05;;;7.70;93.70;;;;;;5062025;28;20071;-67
2022/02/24 00:05:08;;;;;;;12.25;2.45;;;7.70;93.80;;;;;;5064279;28;20381;-67
2022/02/24 00:07:34;;;;;;;7.53;1.88;;;7.70;93.60;;;;;;5058097;28;20069;-67
2022/02/24 00:10:00;;;;;;;12.30;2.30;;;7.80;93.60;;;;;;5058170;28;20064;-67
2022/02/24 00:12:26;;;;;;;14.45;2.88;;;7.70;93.60;;;;;;5064541;28;20424;-67
2022/02/24 00:14:53;;;;;;;8.65;2.20;;;7.70;93.60;;;;;;5056985;28;20036;-67
2022/02/24 00:17:19;;;;;;;12.43;2.75;;;7.70;93.70;;;;;;5054795;28;20048;-67
2022/02/24 00:19:45;;;;;;;13.75;3.10;;;7.70;93.80;;;;;;5057912;28;20037;-67
2022/02/24 00:22:11;;;;;;;12.20;2.63;;;7.70;93.70;;;;;;5059650;28;20044;-67
2022/02/24 00:24:36;;;;;;;11.73;2.75;;;7.70;93.80;;;;;;5054641;28;20051;-67
2022/02/24 00:27:02;;;;;;;9.02;2.65;;;7.70;93.70;;;;;;5058888;28;21385;-67
2022/02/24 00:29:28;;;;;;;8.95;2.53;;;7.70;93.80;;;;;;5043381;28;20139;-68
2022/02/24 00:31:54;;;;;;;11.73;3.28;;;7.70;93.70;;;;;;5058666;28;20404;-68
2022/02/24 00:34:23;;;;;;;8.38;2.67;;;7.70;93.70;;;;;;5065428;28;20353;-68
2022/02/24 00:36:52;;;;;;;12.35;2.92;;;7.60;93.70;;;;;;5060130;28;20076;-68
2022/02/24 00:39:19;;;;;;;10.77;2.63;;;7.70;93.80;;;;;;5058634;28;20119;-68
2022/02/24 00:41:45;;;;;;;10.93;2.80;;;7.60;93.80;;;;;;5063171;28;20044;-68
2022/02/24 00:44:11;;;;;;;11.82;2.50;;;7.70;93.60;;;;;;5068001;28;20139;-68
2022/02/24 00:46:37;;;;;;;13.65;2.10;;;7.70;93.40;;;;;;5064083;28;20115;-68
2022/02/24 00:49:03;;;;;;;9.57;2.08;;;7.70;93.30;;;;;;5081196;28;20101;-68
2022/02/24 00:51:28;;;;;;;8.43;2.00;;;7.70;93.20;;;;;;5066432;28;20120;-68
2022/02/24 00:53:54;;;;;;;11.63;3.25;;;7.70;93.20;;;;;;5083503;28;20111;-68
2022/02/24 00:56:20;;;;;;;10.68;2.05;;;7.70;93.20;;;;;;5085224;28;20105;-68
2022/02/24 00:58:45;;;;;;;11.90;2.95;;;7.70;93.10;;;;;;5081241;28;20372;-68
2022/02/24 01:01:11;;;;;;;10.10;2.40;;;7.60;93.10;;;;;;5057807;28;20041;-68
2022/02/24 01:03:37;;;;;;;11.15;2.53;;;7.60;93.20;;;;;;5081155;28;20055;-68
2022/02/24 01:06:03;;;;;;;18.98;2.85;;;7.70;93.20;;;;;;5078466;28;20064;-68
2022/02/24 01:08:28;;;;;;;9.98;2.75;;;7.60;93.20;;;;;;5081200;28;20111;-68
2022/02/24 01:10:54;;;;;;;11.40;2.65;;;7.60;93.20;;;;;;5080153;28;20519;-68
2022/02/24 01:13:20;;;;;;;10.35;2.13;;;7.60;93.30;;;;;;5078260;28;20041;-68
2022/02/24 01:15:46;;;;;;;10.13;2.17;;;7.50;93.30;;;;;;5084520;28;20175;-68
2022/02/24 01:18:12;;;;;;;10.80;2.33;;;7.50;93.30;;;;;;5063124;28;20491;-68
2022/02/24 01:20:38;;;;;;;8.60;2.15;;;7.50;93.30;;;;;;5078024;28;20481;-68
2022/02/24 01:23:05;;;;;;;9.15;2.05;;;7.50;93.40;;;;;;5060838;28;20048;-68
2022/02/24 01:25:32;;;;;;;11.30;2.05;;;7.50;93.20;;;;;;5083433;28;20169;-68
2022/02/24 01:27:59;;;;;;;8.32;2.50;;;7.50;93.10;;;;;;5081297;28;20051;-68
2022/02/24 01:30:24;;;;;;;9.50;2.20;;;7.50;92.90;;;;;;5063771;28;20043;-68
2022/02/24 01:32:50;;;;;;;9.95;2.20;;;7.50;92.90;;;;;;5077277;28;20496;-68
2022/02/24 01:35:16;;;;;;;14.60;2.38;;;7.50;92.90;;;;;;5085197;28;20076;-68
2022/02/24 01:37:42;;;;;;;10.93;2.38;;;7.50;93.00;;;;;;5069804;28;20044;-68
2022/02/24 01:40:08;;;;;;;10.70;2.28;;;7.40;93.00;;;;;;5081005;28;20119;-68
2022/02/24 01:42:34;;;;;;;11.52;2.40;;;7.40;93.10;;;;;;5082522;28;20040;-68
2022/02/24 01:45:00;;;;;;;8.23;1.85;;;7.40;93.00;;;;;;5084741;28;20115;-68
2022/02/24 01:47:26;;;;;;;8.55;1.85;;;7.40;93.00;;;;;;5083552;28;20149;-68
2022/02/24 01:49:52;;;;;;;9.95;2.00;;;7.40;92.90;;;;;;5085332;28;20500;-68
2022/02/24 01:52:19;;;;;;;9.30;2.03;;;7.40;92.90;;;;;;5067876;28;20046;-68
2022/02/24 01:54:46;;;;;;;8.57;2.00;;;7.40;92.90;;;;;;5049095;28;20071;-68
2022/02/24 01:57:12;;;;;;;8.68;1.90;;;7.40;92.80;;;;;;5065050;28;20046;-68
2022/02/24 01:59:38;;;;;;;11.02;2.05;;;7.40;92.60;;;;;;5085868;28;20040;-68
2022/02/24 02:02:04;;;;;;;10.07;2.30;;;7.40;92.80;;;;;;5084670;28;20081;-68
2022/02/24 02:04:30;;;;;;;9.40;2.25;;;7.40;92.80;;;;;;5079633;28;20060;-68
2022/02/24 02:06:56;;;;;;;10.65;2.50;;;7.40;92.70;;;;;;5083682;28;20047;-68
2022/02/24 02:09:21;;;;;;;8.80;1.85;;;7.40;92.70;;;;;;5079825;28;20103;-68
2022/02/24 02:11:47;;;;;;;10.27;2.40;;;7.40;92.70;;;;;;5083261;28;20098;-68
2022/02/24 02:14:13;;;;;;;10.50;1.90;;;7.30;92.60;;;;;;5084875;28;20448;-68
2022/02/24 02:16:50;;;;;;;12.50;2.22;;;7.30;92.60;;;;;;5085664;28;20032;-68
2022/02/24 02:19:17;;;;;;;15.75;2.58;;;7.40;92.60;;;;;;5087250;28;20033;-68
2022/02/24 02:21:44;;;;;;;12.23;2.40;;;7.30;92.60;;;;;;5085298;28;20032;-68
2022/02/24 02:24:09;;;;;;;11.60;2.20;;;7.30;92.60;;;;;;5085233;28;20032;-68
2022/02/24 02:26:35;;;;;;;7.78;2.00;;;7.40;92.40;;;;;;5050465;28;20047;-68
2022/02/24 02:29:03;;;;;;;9.38;2.38;;;7.40;92.40;;;;;;5083410;28;20119;-68
2022/02/24 02:31:29;;;;;;;9.43;2.28;;;7.40;92.30;;;;;;5083983;28;20045;-68
2022/02/24 02:34:07;;;;;;;7.38;1.73;;;7.40;92.60;;;;;;5081623;28;20553;-68
2022/02/24 02:36:34;;;;;;;14.48;2.67;;;7.30;92.30;;;;;;5064151;28;20391;-68
2022/02/24 02:39:00;;;;;;;12.50;2.47;;;7.40;92.30;;;;;;5063246;28;20431;-68
2022/02/24 02:41:31;;;;;;;11.80;2.20;;;7.30;92.30;;;;;;5066422;28;20484;-68
2022/02/24 02:43:57;;;;;;;14.57;2.20;;;7.30;92.20;;;;;;5083979;28;20040;-68
2022/02/24 02:46:23;;;;;;;10.85;2.05;;;7.30;92.20;;;;;;5085611;28;20051;-68
2022/02/24 02:48:49;;;;;;;9.40;1.98;;;7.30;92.30;;;;;;5080500;28;20029;-68
2022/02/24 02:51:15;;;;;;;10.90;2.35;;;7.30;92.40;;;;;;5079498;28;20024;-68
2022/02/24 02:53:41;;;;;;;9.77;2.00;;;7.30;92.50;;;;;;5062996;28;20416;-68
2022/02/24 02:56:07;;;;;;;11.35;1.80;;;7.30;92.50;;;;;;5066282;28;20036;-68
2022/02/24 02:58:32;;;;;;;9.40;2.10;;;7.30;92.50;;;;;;5085636;28;20116;-68
2022/02/24 03:00:58;;;;;;;12.73;2.33;;;7.20;92.50;;;;;;5064834;28;21174;-68
2022/02/24 03:03:24;;;;;;;11.65;2.30;;;7.20;92.50;;;;;;5062190;28;20065;-68
2022/02/24 03:05:55;;;;;;;11.02;2.15;;;7.20;92.50;;;;;;5068221;28;20091;-68
2022/02/24 03:08:21;;;;;;;9.52;1.98;;;7.20;92.50;;;;;;5078855;28;20036;-68
2022/02/24 03:10:47;;;;;;;9.02;2.00;;;7.20;92.60;;;;;;5064804;28;20108;-68
2022/02/24 03:13:14;;;;;;;11.20;1.88;;;7.20;92.50;;;;;;5062325;28;20044;-68
2022/02/24 03:15:40;;;;;;;9.13;1.58;;;7.20;92.40;;;;;;5066705;28;20062;-68
2022/02/24 03:18:05;;;;;;;10.80;1.88;;;7.20;92.40;;;;;;5069208;28;20048;-68
2022/02/24 03:20:32;;;;;;;10.60;2.78;;;7.20;92.30;;;;;;5081469;28;20491;-68
2022/02/24 03:23:04;;;;;;;10.13;2.58;;;7.20;92.30;;;;;;5062062;28;20048;-68
2022/02/24 03:25:31;;;;;;;12.38;1.75;;;7.20;92.30;;;;;;5086506;28;20119;-68
2022/02/24 03:27:57;;;;;;;11.43;2.53;;;7.20;92.40;;;;;;5065013;28;20048;-68
2022/02/24 03:30:25;;;;;;;12.07;2.53;;;7.20;92.50;;;;;;5084751;28;20033;-68
2022/02/24 03:32:51;;;;;;;9.32;2.17;;;7.20;92.80;;;;;;5079198;28;20080;-68
2022/02/24 03:35:18;;;;;;;10.60;1.92;;;7.20;92.40;;;;;;5045205;28;20066;-68
2022/02/24 03:37:43;;;;;;;9.63;1.70;;;7.20;92.40;;;;;;5063223;28;20491;-67
2022/02/24 03:40:11;;;;;;;15.43;2.15;;;7.20;92.40;;;;;;5065157;28;20048;-68
2022/02/24 03:42:36;;;;;;;11.82;2.05;;;7.20;92.40;;;;;;5064601;28;20050;-68
2022/02/24 03:45:03;;;;;;;10.02;1.83;;;7.20;92.30;;;;;;5062966;28;20481;-68
2022/02/24 03:47:29;;;;;;;14.55;2.67;;;7.20;92.30;;;;;;5060304;28;20045;-68
2022/02/24 03:49:55;;;;;;;11.63;2.10;;;7.20;92.30;;;;;;5055851;28;20040;-68
2022/02/24 03:52:20;;;;;;;12.73;1.90;;;7.20;92.30;;;;;;5065538;28;20067;-68
2022/02/24 03:54:47;;;;;;;13.75;1.95;;;7.20;92.30;;;;;;5064917;28;20396;-68
2022/02/24 03:57:16;;;;;;;10.63;1.95;;;7.20;92.30;;;;;;5062206;28;20040;-68
2022/02/24 03:59:42;;;;;;;8.65;2.03;;;7.20;92.30;;;;;;5054478;28;20678;-68
2022/02/24 04:02:08;;;;;;;10.35;1.90;;;7.20;92.20;;;;;;5063315;28;20040;-68
2022/02/24 04:04:35;;;;;;;8.85;1.75;;;7.20;92.20;;;;;;5063428;28;20044;-68
2022/02/24 04:07:01;;;;;;;10.93;2.05;;;7.20;92.10;;;;;;5060231;28;20028;-68
2022/02/24 04:09:27;;;;;;;10.35;2.33;;;7.20;92.10;;;;;;5058691;28;20099;-68
2022/02/24 04:11:53;;;;;;;11.02;2.33;;;7.20;92.20;;;;;;5056638;28;20036;-68
2022/02/24 04:14:19;;;;;;;11.48;2.38;;;7.20;92.30;;;;;;5064086;28;20136;-68
2022/02/24 04:16:45;;;;;;;17.33;2.53;;;7.20;92.40;;;;;;5056906;28;20536;-68
2022/02/24 04:19:11;;;;;;;10.82;1.88;;;7.10;92.50;;;;;;5060723;28;20397;-68
2022/02/24 04:21:36;;;;;;;7.03;1.95;;;7.20;92.60;;;;;;5060104;28;20043;-68
2022/02/24 04:24:03;;;;;;;13.65;2.78;;;7.20;92.50;;;;;;5058089;28;20090;-68
2022/02/24 04:26:29;;;;;;;10.75;2.03;;;7.20;92.50;;;;;;5064429;28;20041;-68
2022/02/24 04:28:55;;;;;;;9.07;1.88;;;7.20;92.50;;;;;;5061566;28;20400;-68
2022/02/24 04:31:20;;;;;;;11.60;2.00;;;7.20;92.70;;;;;;5060224;28;20592;-68
2022/02/24 04:33:46;;;;;;;11.32;2.15;;;7.20;92.70;;;;;;5062513;28;20053;-68
2022/02/24 04:36:12;;;;;;;13.88;2.40;;;7.10;92.80;;;;;;5058117;28;20112;-68
2022/02/24 04:38:38;;;;;;;11.77;2.45;;;7.20;92.80;;;;;;5065386;28;20036;-68
2022/02/24 04:41:04;;;;;;;8.93;1.80;;;7.10;92.90;;;;;;5063154;28;20400;-68
2022/02/24 04:43:29;;;;;;;7.95;1.60;;;7.20;93.00;;;;;;5065204;28;20037;-68
2022/02/24 04:45:55;;;;;;;10.40;2.15;;;7.20;93.00;;;;;;5080793;28;20510;-68
2022/02/24 04:48:21;;;;;;;9.80;2.22;;;7.20;93.10;;;;;;5084587;28;20024;-68
2022/02/24 04:50:50;;;;;;;10.25;2.13;;;7.20;93.10;;;;;;5065184;28;20214;-68
2022/02/24 04:53:16;;;;;;;6.38;1.80;;;7.20;93.10;;;;;;5065312;28;20044;-68
2022/02/24 04:55:42;;;;;;;7.57;2.20;;;7.20;93.20;;;;;;5045225;28;20052;-68
2022/02/24 04:58:08;;;;;;;10.30;1.90;;;7.10;93.20;;;;;;5081412;28;20062;-68
2022/02/24 05:00:34;;;;;;;12.38;2.47;;;7.10;93.20;;;;;;5084532;28;20036;-68
2022/02/24 05:03:00;;;;;;;10.32;1.95;;;7.10;93.30;;;;;;5081755;28;20028;-68
2022/02/24 05:05:25;;;;;;;8.55;2.08;;;7.10;93.40;;;;;;5083796;28;20596;-68
2022/02/24 05:07:51;;;;;;;12.43;2.50;;;7.00;93.50;;;;;;5081131;28;20064;-68
2022/02/24 05:10:17;;;;;;;9.93;2.38;;;7.00;93.50;;;;;;5066194;28;20086;-68
2022/02/24 05:12:43;;;;;;;8.27;2.35;;;7.00;93.90;;;;;;5064619;28;20480;-68
2022/02/24 05:15:10;;;;;;;8.93;2.05;;;7.00;93.90;;;;;;5081222;28;20274;-68
2022/02/24 05:17:39;;;;;;;9.27;2.40;;;7.00;94.10;;;;;;5082379;28;20086;-68
2022/02/24 05:20:06;;;;;;;11.75;2.20;;;6.90;94.10;;;;;;5069171;28;20090;-68
2022/02/24 05:22:31;;;;;;;11.25;2.25;;;7.00;94.20;;;;;;5070694;28;20479;-68
2022/02/24 05:24:57;;;;;;;12.20;2.03;;;7.00;94.20;;;;;;5083031;28;20120;-68
2022/02/24 05:27:23;;;;;;;11.88;2.60;;;7.00;94.20;;;;;;5067076;28;20048;-68
2022/02/24 05:29:48;;;;;;;14.10;2.65;;;7.10;94.10;;;;;;5068467;28;20155;-68
2022/02/24 05:32:14;;;;;;;8.02;2.28;;;7.10;94.10;;;;;;5081460;28;20040;-68
2022/02/24 05:34:40;;;;;;;11.10;2.55;;;7.00;94.20;;;;;;5084240;28;20482;-68
2022/02/24 05:37:06;;;;;;;9.05;2.42;;;7.10;94.20;;;;;;5064112;28;20088;-68
2022/02/24 05:39:31;;;;;;;10.80;2.83;;;7.00;94.30;;;;;;5082418;28;20063;-68
2022/02/24 05:41:59;;;;;;;10.57;2.63;;;7.00;94.40;;;;;;5078361;28;20080;-68
2022/02/24 05:44:25;;;;;;;7.30;2.35;;;7.00;94.40;;;;;;5080981;28;20048;-68
2022/02/24 05:46:51;;;;;;;9.00;2.60;;;7.10;94.50;;;;;;5081186;28;20047;-68
2022/02/24 05:49:17;;;;;;;8.88;1.83;;;7.00;94.40;;;;;;5086727;28;20036;-68
2022/02/24 05:51:44;;;;;;;11.10;2.90;;;7.10;94.50;;;;;;5064353;28;20373;-68
2022/02/24 05:54:10;;;;;;;10.13;2.88;;;7.10;94.50;;;;;;5084369;28;20068;-68
2022/02/24 05:56:36;;;;;;;10.85;2.97;;;7.10;94.50;;;;;;5081556;28;20688;-68
2022/02/24 05:59:02;;;;;;;12.15;2.60;;;7.10;94.50;;;;;;5060945;28;20053;-68
2022/02/24 06:01:28;;;;;;;8.77;2.10;;;7.00;94.60;;;;;;5061679;28;20044;-68
2022/02/24 06:03:54;;;;;;;7.28;2.20;;;7.00;94.60;;;;;;5083655;28;20074;-68
2022/02/24 06:06:20;;;;;;;6.78;2.47;;;7.00;94.60;;;;;;5084048;28;20036;-68
2022/02/24 06:08:46;;;;;;;9.98;2.22;;;7.00;94.70;;;;;;5082961;28;21760;-68
2022/02/24 06:11:11;;;;;;;8.55;2.03;;;7.00;94.70;;;;;;5065590;28;20054;-68
2022/02/24 06:13:37;;;;;;;12.18;2.15;;;7.00;94.70;;;;;;5052186;28;20048;-68
2022/02/24 06:16:03;;;;;;;7.97;2.03;;;7.00;94.60;;;;;;5064967;28;20048;-68
2022/02/24 06:18:29;;;;;;;11.02;2.38;;;7.00;94.60;;;;;;5067899;28;20048;-68
2022/02/24 06:20:55;;;;;;;10.98;2.30;;;7.00;94.60;;;;;;5066483;28;20062;-68
2022/02/24 06:23:20;;;;;;;7.28;2.10;;;7.10;94.70;;;;;;5085209;28;20028;-68
2022/02/24 06:25:46;;;;;;;7.20;1.75;;;7.00;94.50;;;;;;5086722;28;20085;-68
2022/02/24 06:28:12;;;;;;;9.27;1.98;;;7.10;94.60;;;;;;5083667;28;20052;-68
2022/02/24 06:30:38;;;;;;;10.45;2.55;;;7.10;94.50;;;;;;5062213;28;20058;-68
2022/02/24 06:33:04;;;;;;;9.80;2.17;;;7.10;94.50;;;;;;5057224;28;20420;-68
2022/02/24 06:35:30;;;;;;;9.48;2.63;;;7.10;94.60;;;;;;5063466;28;20049;-68
2022/02/24 06:37:56;;;;;;;6.82;2.10;;;7.10;94.60;;;;;;5080409;28;20143;-68
2022/02/24 06:40:22;;;;;;;8.95;2.08;;;7.10;94.50;;;;;;5066463;28;20218;-68
2022/02/24 06:42:48;;;;;;;11.63;2.47;;;7.10;94.60;;;;;;5077369;28;20477;-68
2022/02/24 06:45:14;;;;;;;8.93;2.55;;;7.10;94.60;;;;;;5081624;28;20523;-68
2022/02/24 06:47:40;;;;;;;9.95;2.35;;;7.20;94.70;;;;;;5048391;28;20036;-68
2022/02/24 06:50:07;;;;;;;12.20;2.38;;;7.10;94.60;;;;;;5084875;28;20028;-68
2022/02/24 06:52:32;;;;;;;11.32;2.65;;;7.10;94.70;;;;;;5084815;28;20047;-68
2022/02/24 06:54:58;;;;;;;10.30;2.13;;;7.10;94.90;;;;;;5082747;28;20039;-68
2022/02/24 06:57:24;;;;;;;8.57;2.22;;;7.10;94.90;;;;;;5079901;28;20055;-68
2022/02/24 06:59:50;;;;;;;11.30;2.15;;;7.20;94.80;;;;;;5061691;28;20045;-68
2022/02/24 07:02:15;;;;;;;9.32;2.40;;;7.20;94.90;;;;;;5078483;28;20039;-68
2022/02/24 07:04:41;;;;;;;7.97;2.20;;;7.20;94.90;;;;;;5081271;28;20032;-68
2022/02/24 07:07:07;;;;;;;11.50;2.38;;;7.20;95.00;;;;;;5085010;28;20028;-68
2022/02/24 07:09:32;;;;;;;9.32;2.63;;;7.30;95.00;;;;;;5066149;28;20051;-68
2022/02/24 07:11:59;;;;;;;8.90;2.40;;;7.30;94.90;;;;;;5086176;28;20087;-67
2022/02/24 07:14:25;;;;;;;9.50;2.90;;;7.30;95.00;;;;;;5064685;28;20517;-67
2022/02/24 07:16:51;;;;;;;11.05;2.28;;;7.40;94.90;;;;;;5063728;28;20131;-68
2022/02/24 07:19:17;;;;;;;9.63;2.40;;;7.30;95.30;;;;;;5062250;28;20079;-67
2022/02/24 07:21:42;;;;;;;8.98;2.42;;;7.40;95.00;;;;;;5079258;28;20033;-68
2022/02/24 07:24:11;;;;;;;11.60;2.67;;;7.40;94.90;;;;;;5063676;28;20055;-68
2022/02/24 07:26:37;;;;;;;8.20;2.42;;;7.50;95.20;;;;;;5077826;28;20032;-68
2022/02/24 07:29:02;;;;;;;12.55;2.67;;;7.40;95.00;;;;;;5060932;28;20031;-68
2022/02/24 07:31:29;;;;;;;6.32;2.33;;;7.50;95.10;;;;;;5082373;28;20101;-68
2022/02/24 07:33:55;;;;;;;10.60;2.72;;;7.50;95.10;;;;;;5080640;28;20134;-68
2022/02/24 07:36:21;;;;;;;10.23;2.10;;;7.50;95.10;;;;;;5078971;28;20075;-68
2022/02/24 07:38:46;;;;;;;8.07;2.42;;;7.50;95.10;;;;;;5048188;28;20412;-68
2022/02/24 07:41:12;;;;;;;10.13;2.42;;;7.60;95.10;;;;;;5064629;28;20070;-68
2022/02/24 07:43:38;;;;;;;10.18;2.85;;;7.60;95.10;;;;;;5063778;28;20045;-68
2022/02/24 07:46:04;;;;;;;14.68;2.67;;;7.60;94.90;;;;;;5081862;28;20056;-68
2022/02/24 07:48:30;;;;;;;13.13;2.60;;;7.70;95.00;;;;;;5077619;28;20037;-68
2022/02/24 07:50:56;;;;;;;11.20;2.42;;;7.70;94.90;;;;;;5080222;28;20455;-68
2022/02/24 07:53:22;;;;;;;12.85;2.95;;;7.80;95.00;;;;;;5082527;28;20038;-69
2022/02/24 07:55:48;;;;;;;14.07;2.83;;;7.90;94.80;;;;;;5079629;28;20040;-69
2022/02/24 07:58:14;;;;;;;15.80;3.20;;;8.00;94.50;;;;;;5060543;28;20048;-67
2022/02/24 08:00:40;;;;;;;16.20;2.95;;;8.10;94.60;;;;;;5078119;28;20458;-67
2022/02/24 08:03:05;;;;;;;14.07;2.67;;;8.30;94.60;;;;;;5045255;28;20612;-67
2022/02/24 08:05:31;;;;;;;8.95;2.50;;;8.70;94.40;;;;;;5079322;28;20403;-67
2022/02/24 08:07:57;;;;;;;9.80;3.05;;;9.00;94.00;;;;;;5076830;28;20044;-67
2022/02/24 08:10:23;;;;;;;11.15;2.20;;;9.10;93.50;;;;;;5062126;28;20478;-68
2022/02/24 08:12:49;;;;;;;10.57;2.67;;;9.40;93.40;;;;;;5076239;28;20251;-68
2022/02/24 08:15:19;;;;;;;11.75;2.80;;;9.80;93.40;;;;;;5059169;28;20051;-69
2022/02/24 08:17:45;;;;;;;10.35;2.95;;;10.20;92.20;;;;;;5082187;28;20081;-68
2022/02/24 08:20:12;;;;;;;10.90;2.50;;;10.50;91.70;;;;;;5063847;28;20048;-68
2022/02/24 08:22:48;;;;;;;13.80;3.13;;;10.80;91.30;;;;;;5062120;28;20558;-68
2022/02/24 08:25:16;;;;;;;12.05;3.30;;;11.30;90.80;;;;;;5078301;28;20538;-69
2022/02/24 08:27:44;;;;;;;9.90;2.72;;;11.60;90.20;;;;;;5060742;28;20357;-68
2022/02/24 08:30:12;;;;;;;13.40;2.95;;;11.70;89.20;;;;;;5080221;28;20047;-68
2022/02/24 08:32:40;;;;;;;13.20;2.78;;;11.60;88.80;;;;;;5063028;28;20043;-69
2022/02/24 08:35:10;;;;;;;11.38;3.58;;;11.40;88.40;;;;;;5042256;28;20044;-67
2022/02/24 08:37:36;;;;;;;12.32;2.70;;;11.50;89.10;;;;;;5079522;28;20040;-68
2022/02/24 08:40:06;;;;;;;12.65;3.17;;;11.70;88.70;;;;;;5081559;28;20036;-69
2022/02/24 08:42:32;;;;;;;13.13;3.67;;;11.80;87.60;;;;;;5077988;28;20041;-68
2022/02/24 08:44:57;;;;;;;9.85;2.35;;;12.00;87.10;;;;;;5069116;28;20132;-68
2022/02/24 08:47:24;;;;;;;9.07;2.40;;;12.00;86.80;;;;;;5073791;28;20083;-68
2022/02/24 08:49:51;;;;;;;14.50;3.20;;;12.10;86.80;;;;;;5085643;28;20043;-68
2022/02/24 08:52:17;;;;;;;11.63;2.80;;;12.50;86.20;;;;;;5067865;28;20096;-68
2022/02/24 08:54:43;;;;;;;9.43;2.38;;;12.50;85.00;;;;;;5064814;28;20474;-68
2022/02/24 08:57:09;;;;;;;13.25;2.97;;;12.90;85.90;;;;;;5082306;28;20043;-68
2022/02/24 08:59:36;;;;;;;10.70;2.53;;;12.80;83.70;;;;;;5063530;28;20048;-69
2022/02/24 09:02:02;;;;;;;8.40;2.63;;;12.70;84.00;;;;;;5053698;28;20096;-68
2022/02/24 09:04:28;;;;;;;10.68;3.33;;;12.70;84.40;;;;;;5084530;28;20040;-68
2022/02/24 09:06:54;;;;;;;8.75;2.83;;;12.90;83.10;;;;;;5082059;28;20031;-69
2022/02/24 09:09:19;;;;;;;9.30;2.70;;;12.60;82.60;;;;;;5061920;28;20042;-68
2022/02/24 09:11:45;;;;;;;12.65;3.40;;;12.10;83.20;;;;;;5064901;28;20493;-68
2022/02/24 09:14:11;;;;;;;12.85;3.05;;;11.60;84.80;;;;;;5066435;28;20488;-68
2022/02/24 09:16:37;;;;;;;14.32;2.90;;;11.00;86.30;;;;;;5076323;28;20070;-68
2022/02/24 09:19:03;;;;;;;15.73;2.85;;;10.70;88.30;;;;;;5064135;28;20045;-68
2022/02/24 09:21:29;;;;;;;7.35;2.72;;;10.50;88.70;;;;;;5064494;28;20121;-68
2022/02/24 09:23:55;;;;;;;12.18;2.72;;;10.30;89.80;;;;;;5068913;28;20041;-68
2022/02/24 09:26:20;;;;;;;9.13;2.80;;;10.10;90.50;;;;;;5065570;28;20488;-68
2022/02/24 09:28:46;;;;;;;12.63;3.13;;;10.10;90.80;;;;;;5081605;28;20051;-70
2022/02/24 09:31:12;;;;;;;8.45;2.75;;;10.10;90.70;;;;;;5063733;28;20524;-69
2022/02/24 09:33:38;;;;;;;12.60;2.22;;;10.20;90.60;;;;;;5058903;28;20047;-69
2022/02/24 09:36:04;;;;;;;10.93;2.78;;;10.20;90.70;;;;;;5084067;28;20400;-69
2022/02/24 09:38:30;;;;;;;10.75;2.40;;;10.20;90.90;;;;;;5083757;28;20127;-70
2022/02/24 09:40:56;;;;;;;14.60;3.00;;;10.20;90.70;;;;;;5064732;28;20105;-69
2022/02/24 09:43:27;;;;;;;11.25;3.05;;;10.10;91.00;;;;;;5045331;28;20052;-68
2022/02/24 09:45:58;;;;;;;12.30;2.85;;;10.20;91.20;;;;;;5062740;28;20048;-68
2022/02/24 09:48:29;;;;;;;9.77;2.35;;;10.30;91.40;;;;;;5043880;28;20037;-68
2022/02/24 09:50:56;;;;;;;12.60;2.28;;;10.50;91.40;;;;;;5067214;28;20522;-68
2022/02/24 09:53:30;;;;;;;9.73;2.10;;;10.90;90.90;;;;;;5058961;28;20049;-68
2022/02/24 09:55:56;;;;;;;9.85;2.35;;;11.00;90.60;;;;;;5065351;28;20382;-68
2022/02/24 09:58:23;;;;;;;8.65;2.45;;;11.20;90.30;;;;;;5063272;28;20044;-68
2022/02/24 10:00:49;;;;;;;11.10;2.45;;;11.70;90.20;;;;;;5062303;28;20033;-68
2022/02/24 10:03:27;;;;;;;10.40;2.40;;;12.10;88.50;;;;;;5059211;28;20086;-69
2022/02/24 10:05:52;;;;;;;9.00;2.28;;;12.30;86.80;;;;;;5062754;28;20049;-70
2022/02/24 10:08:29;;;;;;;6.97;1.85;;;12.00;86.50;;;;;;5066575;28;20067;-68
2022/02/24 10:10:55;;;;;;;9.05;1.92;;;11.70;87.40;;;;;;5065697;28;20044;-68
2022/02/24 10:13:21;;;;;;;6.72;1.60;;;11.60;88.80;;;;;;5065238;28;20461;-68
2022/02/24 10:15:58;;;;;;;9.57;2.15;;;12.00;88.80;;;;;;5064085;28;20150;-68
2022/02/24 10:18:26;;;;;;;6.63;1.90;;;12.70;88.00;;;;;;5063947;28;20102;-68
2022/02/24 10:20:56;;;;;;;7.43;1.80;;;13.60;85.00;;;;;;5064381;28;20468;-69
2022/02/24 10:23:34;;;;;;;7.22;1.70;;;13.70;83.30;;;;;;5062898;28;20056;-68
2022/02/24 10:26:03;;;;;;;8.13;2.00;;;13.70;82.90;;;;;;5061505;28;20037;-67
2022/02/24 10:28:46;;;;;;;12.68;2.00;;;14.10;83.10;;;;;;5065277;28;20071;-68
2022/02/24 10:31:18;;;;;;;10.48;2.50;;;14.50;81.30;;;;;;5059972;28;20037;-69
2022/02/24 10:33:51;;;;;;;7.13;1.98;;;14.50;80.50;;;;;;5070662;28;20041;-70
2022/02/24 10:36:20;;;;;;;7.55;1.52;;;14.40;81.30;;;;;;5065173;28;20063;-69
2022/02/24 10:39:07;;;;;;;8.95;1.63;;;14.70;79.80;;;;;;5063208;28;20048;-68
2022/02/24 10:41:36;;;;;;;6.25;1.95;;;14.80;78.20;;;;;;5028953;28;20052;-69
2022/02/24 10:44:13;;;;;;;8.82;2.17;;;14.60;79.10;;;;;;5062140;28;20068;-69
2022/02/24 10:46:40;;;;;;;7.28;2.00;;;14.90;79.80;;;;;;5064319;28;20052;-70
2022/02/24 10:49:06;;;;;;;8.68;2.08;;;15.50;78.30;;;;;;5068402;28;20051;-71
2022/02/24 10:51:34;;;;;;;5.18;1.60;;;15.80;76.10;;;;;;5064880;28;20056;-71
2022/02/24 10:54:12;;;;;;;8.13;1.77;;;16.00;76.20;;;;;;5067270;28;20101;-71
2022/02/24 10:56:42;;;;;;;7.18;1.77;;;15.80;75.10;;;;;;5079819;28;20040;-71
2022/02/24 10:59:09;;;;;;;7.93;1.88;;;15.80;74.70;;;;;;5064838;28;20040;-72
2022/02/24 11:01:35;;;;;;;10.52;1.73;;;15.80;74.80;;;;;;5062166;28;20040;-71
2022/02/24 11:04:04;;;;;;;7.70;2.00;;;16.10;75.40;;;;;;5050775;28;20629;-69
2022/02/24 11:06:35;;;;;;;5.90;2.15;;;16.10;73.50;;;;;;5064934;28;20043;-69
2022/02/24 11:09:03;;;;;;;6.63;2.15;;;16.30;72.80;;;;;;5064215;28;20039;-68
2022/02/24 11:11:35;;;;;;;9.23;2.17;;;16.00;72.90;;;;;;5061245;28;20087;-67
2022/02/24 11:14:05;;;;;;;8.60;1.90;;;16.10;72.20;;;;;;5065433;28;20488;-67
2022/02/24 11:16:32;;;;;;;6.30;1.65;;;15.70;71.90;;;;;;5081183;28;20044;-67
2022/02/24 11:18:57;;;;;;;10.90;2.30;;;15.10;73.50;;;;;;5065840;28;20049;-69
2022/02/24 11:21:24;;;;;;;6.70;1.67;;;15.10;73.40;;;;;;5065120;28;20385;-68
2022/02/24 11:23:51;;;;;;;7.57;1.80;;;14.80;73.80;;;;;;5064812;28;20648;-68
2022/02/24 11:26:20;;;;;;;6.22;2.10;;;14.50;74.30;;;;;;5086765;28;20041;-69
2022/02/24 11:29:06;;;;;;;7.38;2.03;;;14.40;75.30;;;;;;5061603;28;20042;-75
2022/02/24 11:31:43;;;;;;;4.85;1.67;;;14.30;74.20;;;;;;5063316;28;20055;-76
2022/02/24 11:34:09;;;;;;;8.50;1.90;;;14.20;75.30;;;;;;5065675;28;20091;-69
2022/02/24 11:36:43;;;;;;;7.22;2.42;;;14.20;75.70;;;;;;5066501;28;20059;-69
2022/02/24 11:39:12;;;;;;;6.70;1.85;;;13.90;76.00;;;;;;5064722;28;20043;-68
2022/02/24 11:41:51;;;;;;;7.82;2.05;;;13.30;77.10;;;;;;5063013;28;20090;-68
2022/02/24 11:44:37;;;;;;;6.30;1.33;;;12.80;78.80;;;;;;5046909;28;20120;-68
2022/02/24 11:47:09;;;;;;;9.32;2.35;;;12.50;79.60;;;;;;5061923;28;20142;-69
2022/02/24 11:50:01;;;;;;;7.85;1.83;;;12.20;80.20;;;;;;5062997;28;20493;-69
2022/02/24 11:52:43;;;;;;;6.90;1.58;;;12.00;80.70;;;;;;5055852;28;20064;-69
2022/02/24 11:55:37;;;;;;;8.00;1.80;;;11.80;81.10;;;;;;5064069;28;20040;-69
2022/02/24 11:58:35;;;;;;;9.18;1.80;;;11.70;82.70;;;;;;5066909;28;20695;-70
2022/02/24 12:01:14;;;;;;;8.27;1.52;;;11.70;82.00;;;;;;5056983;28;20052;-66
2022/02/24 12:03:45;;;;;;;5.60;1.27;;;11.80;82.00;;;;;;5057615;28;20394;-70
2022/02/24 12:06:17;;;;;;;5.82;1.63;;;12.20;81.00;;;;;;5055591;28;20032;-70
2022/02/24 12:09:06;;;;;;;8.23;1.83;;;12.00;80.70;;;;;;5049834;28;20076;-68
2022/02/24 12:11:39;;;;;;;10.07;1.70;;;11.80;80.60;;;;;;5065142;28;20067;-66
2022/02/24 12:14:27;;;;;;;9.18;2.10;;;11.60;81.40;;;;;;5064521;28;20497;-66
2022/02/24 12:17:05;;;;;;;7.15;1.40;;;11.40;82.70;;;;;;5058763;28;20432;-67
2022/02/24 12:19:42;;;;;;;7.65;1.60;;;11.30;83.00;;;;;;5055479;28;20055;-67
2022/02/24 12:22:16;;;;;;;6.30;1.67;;;11.20;84.10;;;;;;5058891;28;20519;-67
2022/02/24 12:25:08;;;;;;;6.28;1.55;;;11.20;84.10;;;;;;5057162;28;20049;-67
2022/02/24 12:27:38;;;;;;;4.47;1.20;;;11.30;83.60;;;;;;5057049;28;20044;-67
2022/02/24 12:30:25;;;;;;;5.82;1.30;;;11.20;83.80;;;;;;5060628;28;20048;-68
2022/02/24 12:33:07;;;;;;;7.30;1.48;;;11.20;84.10;;;;;;5058836;28;20121;-68
2022/02/24 12:35:44;;;;;;;8.77;1.73;;;11.20;83.80;;;;;;5063585;28;20033;-67
2022/02/24 12:38:13;;;;;;;5.85;1.55;;;11.10;83.60;;;;;;5057834;28;20045;-67
2022/02/24 12:40:44;;;;;;;7.00;1.35;;;11.00;84.50;;;;;;5058790;28;20431;-68
2022/02/24 12:43:14;;;;;;;9.55;1.48;;;10.90;85.60;;;;;;5072771;28;20447;-68
2022/02/24 12:45:41;;;;;;;9.52;1.95;;;10.90;86.10;;;;;;5042550;28;20048;-68
2022/02/24 12:48:10;;;;;;;34.65;22.35;;;10.80;85.80;;;;;;5045005;28;20054;-68
2022/02/24 12:50:44;;;;;;;9.35;2.10;;;10.80;85.60;;;;;;5057674;28;20109;-70